Time;durP1;ratioP1;P1;durP2;ratioP2;P2;SDS_P1;SDS_P2;PMS_P1;PMS_P2;Temp;Humidity;BMP_temperature;BMP_pressure;BME280_temperature;BME280_humidity;BME280_pressure;Samples;Min_cycle;Max_cycle;Signal;HPM_P1;HPM_P2
2023/04/09 00:02:08;;;;;;;63.42;29.98;;;;;;;;;;5034244;28;20486;-72
2023/04/09 00:04:33;;;;;;;56.78;28.52;;;;;;;;;;5030862;28;20029;-73
2023/04/09 00:06:58;;;;;;;60.95;28.80;;;;;;;;;;5034917;28;20493;-72
2023/04/09 00:09:23;;;;;;;55.63;27.43;;;;;;;;;;5034054;28;20094;-72
2023/04/09 00:11:48;;;;;;;57.72;27.90;;;;;;;;;;5029786;28;20276;-72
2023/04/09 00:14:14;;;;;;;70.82;31.25;;;;;;;;;;5035169;28;20104;-72
2023/04/09 00:16:39;;;;;;;64.95;28.35;;;;;;;;;;5031927;28;20097;-73
2023/04/09 00:19:04;;;;;;;56.05;26.27;;;;;;;;;;5031820;28;20028;-72
2023/04/09 00:21:30;;;;;;;48.83;25.57;;;;;;;;;;5030498;28;20018;-72
2023/04/09 00:23:55;;;;;;;62.03;26.75;;;;;;;;;;5033055;28;20355;-73
2023/04/09 00:26:21;;;;;;;50.63;24.77;;;;;;;;;;5032382;28;20156;-72
2023/04/09 00:28:46;;;;;;;57.22;25.83;;;;;;;;;;5029688;28;20601;-72
2023/04/09 00:31:12;;;;;;;53.85;24.83;;;;;;;;;;5030772;28;20079;-71
2023/04/09 00:33:37;;;;;;;56.60;27.08;;;;;;;;;;5030684;28;20135;-71
2023/04/09 00:36:02;;;;;;;56.90;26.00;;;;;;;;;;5034007;28;20017;-71
2023/04/09 00:38:27;;;;;;;55.60;25.20;;;;;;;;;;5032681;28;20871;-72
2023/04/09 00:40:52;;;;;;;51.28;24.17;;;;;;;;;;5031735;28;20010;-73
2023/04/09 00:43:18;;;;;;;50.17;24.35;;;;;;;;;;5033962;28;20026;-71
2023/04/09 00:45:43;;;;;;;47.05;24.05;;;;;;;;;;5034003;28;20021;-71
2023/04/09 00:48:09;;;;;;;54.40;23.80;;;;;;;;;;5032277;28;20390;-73
2023/04/09 00:50:35;;;;;;;56.30;25.30;;;;;;;;;;5031171;28;20116;-73
2023/04/09 00:53:00;;;;;;;56.92;26.55;;;;;;;;;;5032700;28;20116;-74
2023/04/09 00:55:25;;;;;;;56.47;25.13;;;;;;;;;;5033907;28;20031;-74
2023/04/09 00:57:50;;;;;;;48.90;24.00;;;;;;;;;;5032004;28;20056;-74
2023/04/09 01:00:16;;;;;;;50.25;24.98;;;;;;;;;;5031210;28;20056;-74
2023/04/09 01:02:41;;;;;;;52.00;25.23;;;;;;;;;;5033883;28;20566;-74
2023/04/09 01:05:07;;;;;;;52.55;24.10;;;;;;;;;;5031139;28;20020;-74
2023/04/09 01:07:53;;;;;;;45.55;23.33;;;;;;;;;;5031699;28;20382;-73
2023/04/09 01:10:30;;;;;;;49.33;24.60;;;;;;;;;;5032279;28;20036;-73
2023/04/09 01:13:12;;;;;;;58.83;23.48;;;;;;;;;;5032662;28;20021;-73
2023/04/09 01:15:45;;;;;;;45.90;23.90;;;;;;;;;;5031527;28;20481;-73
2023/04/09 01:18:12;;;;;;;52.13;25.05;;;;;;;;;;5030981;28;20482;-73
2023/04/09 01:20:48;;;;;;;44.20;22.95;;;;;;;;;;5031205;28;20044;-73
2023/04/09 01:23:25;;;;;;;45.92;22.77;;;;;;;;;;5032260;28;20147;-73
2023/04/09 01:25:50;;;;;;;52.78;24.80;;;;;;;;;;5029862;28;20386;-73
2023/04/09 01:28:17;;;;;;;48.90;23.23;;;;;;;;;;5030752;28;20021;-73
2023/04/09 01:30:46;;;;;;;54.10;24.08;;;;;;;;;;5027883;28;20275;-73
2023/04/09 01:33:12;;;;;;;58.65;24.40;;;;;;;;;;5030666;28;20482;-74
2023/04/09 01:35:39;;;;;;;46.83;23.20;;;;;;;;;;5030632;28;20033;-74
2023/04/09 01:38:04;;;;;;;46.17;22.60;;;;;;;;;;5031079;28;20067;-74
2023/04/09 01:40:29;;;;;;;52.88;24.23;;;;;;;;;;5022911;28;20100;-74
2023/04/09 01:42:55;;;;;;;52.15;23.73;;;;;;;;;;5027884;28;20030;-74
2023/04/09 01:45:21;;;;;;;46.20;22.27;;;;;;;;;;5033843;28;20553;-74
2023/04/09 01:47:46;;;;;;;54.88;24.50;;;;;;;;;;5034987;28;20025;-73
2023/04/09 01:50:11;;;;;;;52.92;24.08;;;;;;;;;;5033594;28;20021;-73
2023/04/09 01:52:37;;;;;;;46.17;22.08;;;;;;;;;;5031294;28;20509;-73
2023/04/09 01:55:02;;;;;;;46.90;22.30;;;;;;;;;;5030012;28;20457;-73
2023/04/09 01:57:27;;;;;;;50.92;23.75;;;;;;;;;;5030076;28;20067;-73
2023/04/09 01:59:53;;;;;;;51.92;22.85;;;;;;;;;;5032883;28;20033;-73
2023/04/09 02:02:25;;;;;;;47.90;22.60;;;;;;;;;;5031572;28;20025;-73
2023/04/09 02:04:52;;;;;;;54.05;24.80;;;;;;;;;;5012021;28;20029;-73
2023/04/09 02:07:24;;;;;;;46.28;22.70;;;;;;;;;;5013922;28;20021;-73
2023/04/09 02:09:51;;;;;;;53.00;23.88;;;;;;;;;;5012482;28;20033;-73
2023/04/09 02:12:17;;;;;;;52.83;24.00;;;;;;;;;;5013865;28;20033;-74
2023/04/09 02:14:45;;;;;;;52.63;23.48;;;;;;;;;;5012389;28;20021;-74
2023/04/09 02:17:11;;;;;;;48.80;23.65;;;;;;;;;;5013069;28;20112;-74
2023/04/09 02:19:38;;;;;;;47.85;23.55;;;;;;;;;;5013266;28;20037;-73
2023/04/09 02:22:03;;;;;;;49.85;23.50;;;;;;;;;;5015452;28;20013;-74
2023/04/09 02:24:29;;;;;;;52.65;23.38;;;;;;;;;;5029888;28;20070;-73
2023/04/09 02:26:54;;;;;;;51.92;23.67;;;;;;;;;;5027618;28;20543;-73
2023/04/09 02:29:19;;;;;;;54.58;23.70;;;;;;;;;;5033594;28;20017;-73
2023/04/09 02:31:45;;;;;;;49.80;25.30;;;;;;;;;;5029514;28;20067;-73
2023/04/09 02:34:10;;;;;;;55.63;23.58;;;;;;;;;;5029274;28;20291;-73
2023/04/09 02:36:35;;;;;;;49.30;22.87;;;;;;;;;;5025821;28;20095;-74
2023/04/09 02:39:00;;;;;;;61.27;23.57;;;;;;;;;;5030104;28;20767;-74
2023/04/09 02:41:26;;;;;;;52.73;24.30;;;;;;;;;;5027694;28;20279;-74
2023/04/09 02:43:51;;;;;;;54.17;25.33;;;;;;;;;;5032361;28;20419;-74
2023/04/09 02:46:16;;;;;;;54.03;25.00;;;;;;;;;;5032169;28;20099;-74
2023/04/09 02:48:41;;;;;;;52.07;24.50;;;;;;;;;;5029306;28;20813;-74
2023/04/09 02:51:07;;;;;;;55.23;25.10;;;;;;;;;;5030064;28;20283;-74
2023/04/09 02:53:32;;;;;;;56.25;24.42;;;;;;;;;;5027268;28;20870;-74
2023/04/09 02:55:57;;;;;;;50.60;23.80;;;;;;;;;;5030091;28;20021;-74
2023/04/09 02:58:22;;;;;;;55.57;24.93;;;;;;;;;;5029396;28;20644;-73
2023/04/09 03:00:47;;;;;;;55.85;26.40;;;;;;;;;;5028862;28;20282;-74
2023/04/09 03:03:13;;;;;;;55.88;24.83;;;;;;;;;;5031306;28;20098;-74
2023/04/09 03:05:38;;;;;;;57.03;24.57;;;;;;;;;;5029823;28;20431;-74
2023/04/09 03:08:03;;;;;;;54.78;24.48;;;;;;;;;;5028764;28;20291;-74
2023/04/09 03:10:28;;;;;;;52.13;24.38;;;;;;;;;;5032443;28;20381;-73
2023/04/09 03:12:53;;;;;;;58.00;24.23;;;;;;;;;;5028992;28;20034;-74
2023/04/09 03:15:19;;;;;;;54.33;24.83;;;;;;;;;;5029728;28;20014;-74
2023/04/09 03:17:44;;;;;;;53.08;25.75;;;;;;;;;;5028683;28;20022;-74
2023/04/09 03:20:09;;;;;;;53.33;25.27;;;;;;;;;;5028824;28;20028;-74
2023/04/09 03:22:37;;;;;;;52.03;23.73;;;;;;;;;;5029716;28;20274;-74
2023/04/09 03:25:02;;;;;;;51.95;24.35;;;;;;;;;;5030923;28;20052;-74
2023/04/09 03:27:28;;;;;;;54.97;26.13;;;;;;;;;;5031358;28;20505;-74
2023/04/09 03:29:56;;;;;;;53.80;25.52;;;;;;;;;;5028829;28;20029;-74
2023/04/09 03:32:21;;;;;;;59.40;24.20;;;;;;;;;;5030260;28;20179;-74
2023/04/09 03:34:46;;;;;;;54.87;24.87;;;;;;;;;;5028455;28;20423;-74
2023/04/09 03:37:11;;;;;;;59.63;25.80;;;;;;;;;;5028483;28;20280;-74
2023/04/09 03:39:36;;;;;;;54.00;25.17;;;;;;;;;;5028010;28;20314;-73
2023/04/09 03:42:02;;;;;;;51.33;23.50;;;;;;;;;;5028906;28;20045;-73
2023/04/09 03:44:27;;;;;;;58.35;26.13;;;;;;;;;;5033047;28;20474;-74
2023/04/09 03:46:52;;;;;;;52.87;25.93;;;;;;;;;;5029310;28;20061;-74
2023/04/09 03:49:17;;;;;;;53.85;23.85;;;;;;;;;;5029842;28;20276;-74
2023/04/09 03:51:43;;;;;;;51.50;24.55;;;;;;;;;;5029040;28;20025;-74
2023/04/09 03:54:08;;;;;;;53.88;24.40;;;;;;;;;;5030805;28;20022;-74
2023/04/09 03:56:33;;;;;;;60.90;25.83;;;;;;;;;;5026654;28;20025;-74
2023/04/09 03:58:58;;;;;;;56.50;24.57;;;;;;;;;;5028232;28;20021;-74
2023/04/09 04:01:24;;;;;;;49.67;24.42;;;;;;;;;;5029701;28;20784;-74
2023/04/09 04:03:49;;;;;;;53.72;23.80;;;;;;;;;;5025473;28;20026;-74
2023/04/09 04:06:14;;;;;;;58.55;24.98;;;;;;;;;;5029536;28;20021;-74
2023/04/09 04:08:40;;;;;;;53.45;25.42;;;;;;;;;;5030634;28;20513;-73
2023/04/09 04:11:05;;;;;;;58.28;24.52;;;;;;;;;;5032787;28;20022;-73
2023/04/09 04:13:30;;;;;;;54.42;23.80;;;;;;;;;;5031186;28;20389;-74
2023/04/09 04:15:55;;;;;;;57.25;25.33;;;;;;;;;;5034645;28;20030;-74
2023/04/09 04:18:21;;;;;;;50.93;23.83;;;;;;;;;;5032461;28;20021;-73
2023/04/09 04:20:46;;;;;;;52.25;23.85;;;;;;;;;;5032554;28;20261;-73
2023/04/09 04:23:11;;;;;;;50.97;23.87;;;;;;;;;;5032196;28;20102;-73
2023/04/09 04:25:39;;;;;;;51.92;23.83;;;;;;;;;;5036316;28;20275;-73
2023/04/09 04:28:04;;;;;;;51.42;24.17;;;;;;;;;;5031419;28;20378;-73
2023/04/09 04:30:29;;;;;;;57.03;23.00;;;;;;;;;;5035443;28;20026;-73
2023/04/09 04:32:55;;;;;;;50.03;22.63;;;;;;;;;;5031532;28;20032;-73
2023/04/09 04:35:20;;;;;;;52.10;23.80;;;;;;;;;;5034647;28;20021;-73
2023/04/09 04:37:48;;;;;;;52.88;23.67;;;;;;;;;;5031969;28;20068;-73
2023/04/09 04:40:13;;;;;;;56.47;24.30;;;;;;;;;;5034091;28;20075;-73
2023/04/09 04:42:38;;;;;;;49.97;23.92;;;;;;;;;;5030340;28;20506;-73
2023/04/09 04:45:03;;;;;;;59.80;24.30;;;;;;;;;;5029743;28;20025;-73
2023/04/09 04:47:29;;;;;;;57.55;22.70;;;;;;;;;;5032151;28;20351;-73
2023/04/09 04:49:54;;;;;;;48.77;22.00;;;;;;;;;;5030295;28;20084;-73
2023/04/09 04:52:19;;;;;;;50.97;22.30;;;;;;;;;;5032134;28;20272;-73
2023/04/09 04:54:44;;;;;;;56.22;21.85;;;;;;;;;;5033128;28;20070;-73
2023/04/09 04:57:09;;;;;;;47.10;19.65;;;;;;;;;;5032036;28;20100;-73
2023/04/09 04:59:38;;;;;;;44.20;21.73;;;;;;;;;;5033673;28;20021;-73
2023/04/09 05:02:04;;;;;;;53.22;20.33;;;;;;;;;;5030189;28;20017;-74
2023/04/09 05:04:29;;;;;;;49.33;19.42;;;;;;;;;;5031121;28;20024;-73
2023/04/09 05:06:55;;;;;;;42.50;19.95;;;;;;;;;;5030812;28;20028;-73
2023/04/09 05:09:20;;;;;;;42.10;18.50;;;;;;;;;;5031722;28;20103;-73
2023/04/09 05:11:45;;;;;;;41.65;19.25;;;;;;;;;;5031851;28;20092;-73
2023/04/09 05:14:11;;;;;;;42.00;18.80;;;;;;;;;;5030461;28;20493;-73
2023/04/09 05:16:37;;;;;;;35.13;16.85;;;;;;;;;;5030961;28;20010;-73
2023/04/09 05:19:02;;;;;;;42.92;17.85;;;;;;;;;;5030139;28;20506;-73
2023/04/09 05:21:27;;;;;;;39.35;16.85;;;;;;;;;;5031615;28;20037;-73
2023/04/09 05:23:53;;;;;;;34.93;16.20;;;;;;;;;;5035784;28;20040;-73
2023/04/09 05:26:18;;;;;;;34.05;15.73;;;;;;;;;;5031501;28;20290;-73
2023/04/09 05:28:43;;;;;;;38.78;15.50;;;;;;;;;;5032062;28;20025;-73
2023/04/09 05:31:11;;;;;;;35.72;14.20;;;;;;;;;;5032202;28;20068;-73
2023/04/09 05:33:37;;;;;;;37.15;15.30;;;;;;;;;;5030518;28;20018;-73
2023/04/09 05:36:02;;;;;;;34.92;14.27;;;;;;;;;;5030201;28;20074;-73
2023/04/09 05:38:27;;;;;;;35.15;14.90;;;;;;;;;;5031159;28;20426;-74
2023/04/09 05:40:53;;;;;;;34.83;14.02;;;;;;;;;;5034330;28;20052;-73
2023/04/09 05:43:18;;;;;;;37.72;14.82;;;;;;;;;;5036073;28;20539;-73
2023/04/09 05:45:43;;;;;;;36.80;13.20;;;;;;;;;;5030459;28;20017;-73
2023/04/09 05:48:08;;;;;;;30.75;13.63;;;;;;;;;;5031172;28;20272;-73
2023/04/09 05:50:34;;;;;;;27.38;12.55;;;;;;;;;;5029028;28;20022;-73
2023/04/09 05:52:59;;;;;;;27.80;13.02;;;;;;;;;;5030737;28;20083;-73
2023/04/09 05:55:24;;;;;;;30.13;13.15;;;;;;;;;;5028809;28;20090;-73
2023/04/09 05:57:51;;;;;;;30.27;13.77;;;;;;;;;;5027742;28;20021;-73
2023/04/09 06:00:17;;;;;;;33.28;13.20;;;;;;;;;;5028143;28;20021;-73
2023/04/09 06:02:42;;;;;;;28.85;12.38;;;;;;;;;;5025234;28;20083;-73
2023/04/09 06:05:08;;;;;;;25.30;10.57;;;;;;;;;;5027353;28;20112;-73
2023/04/09 06:07:33;;;;;;;29.38;12.07;;;;;;;;;;5027475;28;20029;-73
2023/04/09 06:09:58;;;;;;;26.60;10.38;;;;;;;;;;5028296;28;20021;-73
2023/04/09 06:12:23;;;;;;;27.38;13.88;;;;;;;;;;5027363;28;20029;-73
2023/04/09 06:14:48;;;;;;;28.20;11.38;;;;;;;;;;5028196;28;20018;-73
2023/04/09 06:17:14;;;;;;;35.40;13.18;;;;;;;;;;5027551;28;20028;-73
2023/04/09 06:19:39;;;;;;;31.35;13.85;;;;;;;;;;5026619;28;20023;-73
2023/04/09 06:22:04;;;;;;;26.80;12.85;;;;;;;;;;5026973;28;20025;-73
2023/04/09 06:24:30;;;;;;;36.03;13.25;;;;;;;;;;5028431;28;20021;-73
2023/04/09 06:26:55;;;;;;;26.92;12.50;;;;;;;;;;5028811;28;20033;-73
2023/04/09 06:29:20;;;;;;;31.38;13.43;;;;;;;;;;5027142;28;20021;-73
2023/04/09 06:31:46;;;;;;;26.45;12.05;;;;;;;;;;5022188;28;20470;-73
2023/04/09 06:34:11;;;;;;;30.70;12.60;;;;;;;;;;5031266;28;21624;-73
2023/04/09 06:36:36;;;;;;;30.70;13.60;;;;;;;;;;5025784;28;20057;-73
2023/04/09 06:39:01;;;;;;;28.17;12.27;;;;;;;;;;5031955;28;20271;-73
2023/04/09 06:41:27;;;;;;;30.05;12.60;;;;;;;;;;5031756;28;20017;-73
2023/04/09 06:43:53;;;;;;;26.70;11.45;;;;;;;;;;5030258;28;20037;-73
2023/04/09 06:46:20;;;;;;;26.73;12.15;;;;;;;;;;5028855;28;20030;-73
2023/04/09 06:48:45;;;;;;;25.88;11.73;;;;;;;;;;5028638;28;20533;-73
2023/04/09 06:51:10;;;;;;;27.52;12.43;;;;;;;;;;5030523;28;20071;-74
2023/04/09 06:53:36;;;;;;;27.55;13.25;;;;;;;;;;5026719;28;20430;-71
2023/04/09 06:56:01;;;;;;;25.77;11.57;;;;;;;;;;5027862;28;20498;-72
2023/04/09 06:58:27;;;;;;;23.35;11.35;;;;;;;;;;5030038;28;20013;-72
2023/04/09 07:00:52;;;;;;;22.57;12.57;;;;;;;;;;5027897;28;20077;-71
2023/04/09 07:03:17;;;;;;;26.70;12.77;;;;;;;;;;5028608;28;20301;-73
2023/04/09 07:05:42;;;;;;;24.80;13.27;;;;;;;;;;5026214;28;20021;-71
2023/04/09 07:08:08;;;;;;;21.70;11.55;;;;;;;;;;5026136;28;20025;-71
2023/04/09 07:10:33;;;;;;;24.33;12.65;;;;;;;;;;5025901;28;20060;-71
2023/04/09 07:12:58;;;;;;;22.20;11.10;;;;;;;;;;5026920;28;20496;-73
2023/04/09 07:15:23;;;;;;;19.23;9.00;;;;;;;;;;5026124;28;20462;-74
2023/04/09 07:17:48;;;;;;;21.97;10.53;;;;;;;;;;5022859;28;20276;-74
2023/04/09 07:20:14;;;;;;;22.52;11.88;;;;;;;;;;5025007;28;20275;-74
2023/04/09 07:22:39;;;;;;;19.98;9.82;;;;;;;;;;5024476;28;20064;-74
2023/04/09 07:25:05;;;;;;;22.63;9.70;;;;;;;;;;5026754;28;20392;-74
2023/04/09 07:27:30;;;;;;;22.15;10.70;;;;;;;;;;5022057;28;20367;-74
2023/04/09 07:29:56;;;;;;;22.95;11.95;;;;;;;;;;5027917;28;20095;-74
2023/04/09 07:32:21;;;;;;;21.17;9.85;;;;;;;;;;5025721;28;20022;-74
2023/04/09 07:34:47;;;;;;;22.35;10.73;;;;;;;;;;5027292;28;20014;-74
2023/04/09 07:37:12;;;;;;;14.48;6.82;;;;;;;;;;5026297;28;20070;-74
2023/04/09 07:39:37;;;;;;;15.48;8.13;;;;;;;;;;5027258;28;20018;-74
2023/04/09 07:42:03;;;;;;;19.92;10.18;;;;;;;;;;5027807;28;20426;-74
2023/04/09 07:44:29;;;;;;;14.32;7.00;;;;;;;;;;5028781;28;20032;-74
2023/04/09 07:46:54;;;;;;;17.83;9.40;;;;;;;;;;5024814;28;20014;-74
2023/04/09 07:49:20;;;;;;;19.95;10.48;;;;;;;;;;5031890;28;20029;-73
2023/04/09 07:51:46;;;;;;;16.55;9.65;;;;;;;;;;5031450;28;20120;-73
2023/04/09 07:54:11;;;;;;;19.47;9.30;;;;;;;;;;5031536;28;20108;-71
2023/04/09 07:56:36;;;;;;;17.20;9.63;;;;;;;;;;5031721;28;20268;-71
2023/04/09 07:59:02;;;;;;;16.07;9.63;;;;;;;;;;5032039;28;20929;-71
2023/04/09 08:01:27;;;;;;;15.15;8.82;;;;;;;;;;5030350;28;20275;-72
2023/04/09 08:03:52;;;;;;;15.87;7.47;;;;;;;;;;5031767;28;20029;-71
2023/04/09 08:06:17;;;;;;;13.60;8.13;;;;;;;;;;5033983;28;20276;-71
2023/04/09 08:08:43;;;;;;;15.07;9.20;;;;;;;;;;5032996;28;20100;-71
2023/04/09 08:11:08;;;;;;;13.63;7.68;;;;;;;;;;5033039;28;20022;-71
2023/04/09 08:13:33;;;;;;;17.23;8.00;;;;;;;;;;5031149;28;20032;-71
2023/04/09 08:16:02;;;;;;;10.77;6.95;;;;;;;;;;5032684;28;20475;-71
2023/04/09 08:18:28;;;;;;;11.82;7.70;;;;;;;;;;5033988;28;20936;-71
2023/04/09 08:20:53;;;;;;;16.17;9.35;;;;;;;;;;5029998;28;20056;-71
2023/04/09 08:23:18;;;;;;;13.85;8.90;;;;;;;;;;5031327;28;20024;-70
2023/04/09 08:25:43;;;;;;;14.98;8.30;;;;;;;;;;5036828;28;20022;-72
2023/04/09 08:28:08;;;;;;;17.83;7.67;;;;;;;;;;5034077;28;20126;-70
2023/04/09 08:30:34;;;;;;;12.25;7.68;;;;;;;;;;5029851;28;20114;-70
2023/04/09 08:33:00;;;;;;;11.55;7.43;;;;;;;;;;5031058;28;20025;-70
2023/04/09 08:35:25;;;;;;;7.35;3.55;;;;;;;;;;5031676;28;20045;-70
2023/04/09 08:37:50;;;;;;;11.02;7.03;;;;;;;;;;5026615;28;20489;-67
2023/04/09 08:40:15;;;;;;;11.97;6.97;;;;;;;;;;5031406;28;20189;-67
2023/04/09 08:42:43;;;;;;;15.23;7.77;;;;;;;;;;5031484;28;20033;-70
2023/04/09 08:45:08;;;;;;;13.18;7.32;;;;;;;;;;5030300;28;20853;-67
2023/04/09 08:47:35;;;;;;;15.80;7.13;;;;;;;;;;5030524;28;20069;-70
2023/04/09 08:50:00;;;;;;;11.10;6.18;;;;;;;;;;5030360;28;20074;-70
2023/04/09 08:52:32;;;;;;;10.38;6.32;;;;;;;;;;5030095;28;20413;-67
2023/04/09 08:54:57;;;;;;;11.88;6.93;;;;;;;;;;5031983;28;20049;-67
2023/04/09 08:57:22;;;;;;;10.73;6.60;;;;;;;;;;5033466;28;20060;-67
2023/04/09 08:59:48;;;;;;;11.43;5.80;;;;;;;;;;5031135;28;20347;-67
2023/04/09 09:02:13;;;;;;;11.47;6.67;;;;;;;;;;5029147;28;20474;-67
2023/04/09 09:04:45;;;;;;;9.55;5.57;;;;;;;;;;5033193;28;20268;-68
2023/04/09 09:07:10;;;;;;;12.35;6.28;;;;;;;;;;5031375;28;20022;-67
2023/04/09 09:09:49;;;;;;;12.23;5.40;;;;;;;;;;5032383;28;20032;-67
2023/04/09 09:12:28;;;;;;;7.22;4.07;;;;;;;;;;5028200;28;20024;-70
2023/04/09 09:14:53;;;;;;;9.73;5.65;;;;;;;;;;5025590;28;20025;-71
2023/04/09 09:17:18;;;;;;;11.50;6.00;;;;;;;;;;5030774;28;20013;-70
2023/04/09 09:19:43;;;;;;;8.47;5.17;;;;;;;;;;5030611;28;20318;-70
2023/04/09 09:22:11;;;;;;;8.47;4.63;;;;;;;;;;5030168;28;20993;-70
2023/04/09 09:24:47;;;;;;;7.90;4.05;;;;;;;;;;5030638;28;20240;-70
2023/04/09 09:27:29;;;;;;;5.78;3.72;;;;;;;;;;5031920;28;20482;-71
2023/04/09 09:29:55;;;;;;;9.95;5.07;;;;;;;;;;5027215;28;20029;-70
2023/04/09 09:32:22;;;;;;;8.57;4.85;;;;;;;;;;5031526;28;20013;-70
2023/04/09 09:34:56;;;;;;;7.75;4.75;;;;;;;;;;5031023;28;20029;-70
2023/04/09 09:37:27;;;;;;;9.77;5.18;;;;;;;;;;5028520;28;20064;-70
2023/04/09 09:39:53;;;;;;;10.15;5.15;;;;;;;;;;5029210;28;20028;-70
2023/04/09 09:42:18;;;;;;;4.72;3.00;;;;;;;;;;5031171;28;20017;-70
2023/04/09 09:44:43;;;;;;;8.33;4.83;;;;;;;;;;5032286;28;20013;-70
2023/04/09 09:47:10;;;;;;;6.23;3.57;;;;;;;;;;5030442;28;20282;-71
2023/04/09 09:49:35;;;;;;;6.10;3.15;;;;;;;;;;5033939;28;20264;-71
2023/04/09 09:52:01;;;;;;;10.37;4.47;;;;;;;;;;5030099;28;20537;-71
2023/04/09 09:54:30;;;;;;;6.72;3.38;;;;;;;;;;5033907;28;20307;-70
2023/04/09 09:56:56;;;;;;;10.05;5.53;;;;;;;;;;5036127;28;20029;-70
2023/04/09 09:59:25;;;;;;;7.90;3.85;;;;;;;;;;5028574;28;20593;-71
2023/04/09 10:01:56;;;;;;;8.20;4.60;;;;;;;;;;5036005;28;20040;-70
2023/04/09 10:04:22;;;;;;;7.70;2.53;;;;;;;;;;5030603;28;20497;-70
2023/04/09 10:06:48;;;;;;;6.38;3.75;;;;;;;;;;5031093;28;20052;-71
2023/04/09 10:09:14;;;;;;;12.50;4.28;;;;;;;;;;5030746;28;20391;-70
2023/04/09 10:11:42;;;;;;;11.20;6.00;;;;;;;;;;5031773;28;20017;-70
2023/04/09 10:14:08;;;;;;;12.40;6.70;;;;;;;;;;5029634;28;20028;-70
2023/04/09 10:16:34;;;;;;;10.30;5.50;;;;;;;;;;5026675;28;20033;-70
2023/04/09 10:19:00;;;;;;;8.50;4.80;;;;;;;;;;5030385;28;20021;-70
2023/04/09 10:21:26;;;;;;;9.88;4.53;;;;;;;;;;5027420;28;20022;-68
2023/04/09 10:23:51;;;;;;;10.50;5.20;;;;;;;;;;5030862;28;20071;-70
2023/04/09 10:26:17;;;;;;;9.13;4.43;;;;;;;;;;5030345;28;20504;-71
2023/04/09 10:28:43;;;;;;;6.10;3.22;;;;;;;;;;5032134;28;20498;-71
2023/04/09 10:31:08;;;;;;;4.63;2.05;;;;;;;;;;5029950;28;20370;-70
2023/04/09 10:33:35;;;;;;;11.40;6.33;;;;;;;;;;5030138;28;20041;-71
2023/04/09 10:36:05;;;;;;;7.70;3.10;;;;;;;;;;5030582;28;20260;-70
2023/04/09 10:38:34;;;;;;;11.93;5.28;;;;;;;;;;5022696;28;20416;-70
2023/04/09 10:41:05;;;;;;;10.60;6.18;;;;;;;;;;5030058;28;20067;-71
2023/04/09 10:43:31;;;;;;;8.98;4.03;;;;;;;;;;5030080;28;20039;-71
2023/04/09 10:45:56;;;;;;;9.80;4.65;;;;;;;;;;5030354;28;20108;-71
2023/04/09 10:48:24;;;;;;;10.75;5.65;;;;;;;;;;5028748;28;20036;-71
2023/04/09 10:50:52;;;;;;;9.90;4.55;;;;;;;;;;5028809;28;20025;-70
2023/04/09 10:53:24;;;;;;;8.07;3.53;;;;;;;;;;5027301;28;20036;-71
2023/04/09 10:55:50;;;;;;;12.93;5.07;;;;;;;;;;5028156;28;20386;-70
2023/04/09 10:58:15;;;;;;;11.80;5.25;;;;;;;;;;5028797;28;20017;-70
2023/04/09 11:00:41;;;;;;;13.57;6.45;;;;;;;;;;5028869;28;20017;-71
2023/04/09 11:03:19;;;;;;;5.35;3.03;;;;;;;;;;5030058;28;20155;-71
2023/04/09 11:05:45;;;;;;;9.48;5.38;;;;;;;;;;5026759;28;20040;-71
2023/04/09 11:08:11;;;;;;;10.05;4.40;;;;;;;;;;5028461;28;20037;-71
2023/04/09 11:10:37;;;;;;;8.90;3.88;;;;;;;;;;5028429;28;20032;-70
2023/04/09 11:13:03;;;;;;;9.07;5.22;;;;;;;;;;5029854;28;20043;-71
2023/04/09 11:15:30;;;;;;;10.18;5.72;;;;;;;;;;5027992;28;20018;-71
2023/04/09 11:17:56;;;;;;;8.55;4.78;;;;;;;;;;5028510;28;20073;-70
2023/04/09 11:20:22;;;;;;;5.82;3.58;;;;;;;;;;5026744;28;20022;-70
2023/04/09 11:22:51;;;;;;;12.55;5.88;;;;;;;;;;5028996;28;20018;-68
2023/04/09 11:25:17;;;;;;;11.25;5.82;;;;;;;;;;5036315;28;20025;-68
2023/04/09 11:27:43;;;;;;;11.18;5.93;;;;;;;;;;5031677;28;20031;-68
2023/04/09 11:30:09;;;;;;;9.50;4.25;;;;;;;;;;5033117;28;20021;-69
2023/04/09 11:32:34;;;;;;;12.65;6.15;;;;;;;;;;5028152;28;20562;-69
2023/04/09 11:34:59;;;;;;;11.95;5.78;;;;;;;;;;5029673;28;20029;-69
2023/04/09 11:37:25;;;;;;;11.43;5.72;;;;;;;;;;5027637;28;20029;-69
2023/04/09 11:39:53;;;;;;;8.52;5.18;;;;;;;;;;5041575;28;20116;-69
2023/04/09 11:42:20;;;;;;;5.22;3.42;;;;;;;;;;5029697;28;20097;-69
2023/04/09 11:44:46;;;;;;;18.95;6.90;;;;;;;;;;5030030;28;20128;-69
2023/04/09 11:47:12;;;;;;;9.98;4.20;;;;;;;;;;5028163;28;20100;-69
2023/04/09 11:49:37;;;;;;;7.03;4.53;;;;;;;;;;5030503;28;20018;-71
2023/04/09 11:52:03;;;;;;;8.68;4.72;;;;;;;;;;5029761;28;20010;-69
2023/04/09 11:54:34;;;;;;;9.27;4.38;;;;;;;;;;5030091;28;20053;-70
2023/04/09 11:57:00;;;;;;;6.18;2.80;;;;;;;;;;5028925;28;20025;-69
2023/04/09 11:59:26;;;;;;;8.88;4.70;;;;;;;;;;5028138;28;20155;-69
2023/04/09 12:01:51;;;;;;;7.20;3.65;;;;;;;;;;5029383;28;20022;-69
2023/04/09 12:04:20;;;;;;;9.73;5.50;;;;;;;;;;5028037;28;20056;-69
2023/04/09 12:06:45;;;;;;;6.55;3.25;;;;;;;;;;5029397;28;20720;-69
2023/04/09 12:09:12;;;;;;;6.43;3.15;;;;;;;;;;5028489;28;20108;-69
2023/04/09 12:11:40;;;;;;;4.03;2.47;;;;;;;;;;5028825;28;20100;-69
2023/04/09 12:14:06;;;;;;;6.18;3.28;;;;;;;;;;5029443;28;20021;-69
2023/04/09 12:16:34;;;;;;;7.18;3.60;;;;;;;;;;5032416;28;20497;-71
2023/04/09 12:19:00;;;;;;;6.22;3.53;;;;;;;;;;5030459;28;20029;-69
2023/04/09 12:21:43;;;;;;;9.10;4.28;;;;;;;;;;5025805;28;20049;-69
2023/04/09 12:24:08;;;;;;;4.25;2.45;;;;;;;;;;5033338;28;20498;-69
2023/04/09 12:26:34;;;;;;;6.30;3.03;;;;;;;;;;5031534;28;20036;-69
2023/04/09 12:28:59;;;;;;;8.15;3.80;;;;;;;;;;5030915;28;20025;-69
2023/04/09 12:31:24;;;;;;;8.88;5.07;;;;;;;;;;5030612;28;20060;-69
2023/04/09 12:33:49;;;;;;;9.13;2.10;;;;;;;;;;5031359;28;20045;-69
2023/04/09 12:36:15;;;;;;;7.30;3.50;;;;;;;;;;5031933;28;20021;-69
2023/04/09 12:38:40;;;;;;;4.70;2.75;;;;;;;;;;5037635;28;20903;-69
2023/04/09 12:41:05;;;;;;;7.03;4.00;;;;;;;;;;5031302;28;20633;-69
2023/04/09 12:43:30;;;;;;;9.50;4.28;;;;;;;;;;5033340;28;20033;-70
2023/04/09 12:45:56;;;;;;;6.67;4.77;;;;;;;;;;5031229;28;20029;-70
2023/04/09 12:48:22;;;;;;;8.32;3.90;;;;;;;;;;5033832;28;20744;-70
2023/04/09 12:50:47;;;;;;;8.15;3.47;;;;;;;;;;5032599;28;20040;-72
2023/04/09 12:53:12;;;;;;;8.20;3.38;;;;;;;;;;5032464;28;20018;-70
2023/04/09 12:55:37;;;;;;;4.03;2.07;;;;;;;;;;5031156;28;20382;-70
2023/04/09 12:58:02;;;;;;;7.22;3.83;;;;;;;;;;5030660;28;20256;-70
2023/04/09 13:00:29;;;;;;;7.97;4.57;;;;;;;;;;5037581;28;20025;-70
2023/04/09 13:02:55;;;;;;;8.52;4.40;;;;;;;;;;5031870;28;20867;-70
2023/04/09 13:05:20;;;;;;;6.95;4.00;;;;;;;;;;5030132;28;20053;-70
2023/04/09 13:07:45;;;;;;;4.90;2.90;;;;;;;;;;5030839;28;20030;-70
2023/04/09 13:10:10;;;;;;;7.75;4.22;;;;;;;;;;5030312;28;20626;-70
2023/04/09 13:12:36;;;;;;;6.47;3.90;;;;;;;;;;5031500;28;20029;-70
2023/04/09 13:15:01;;;;;;;7.30;3.95;;;;;;;;;;5031086;28;20342;-70
2023/04/09 13:17:26;;;;;;;7.07;3.47;;;;;;;;;;5031463;28;20382;-70
2023/04/09 13:19:52;;;;;;;5.20;3.22;;;;;;;;;;5031553;28;20334;-69
2023/04/09 13:22:17;;;;;;;5.32;3.65;;;;;;;;;;5037181;28;20024;-69
2023/04/09 13:24:43;;;;;;;7.38;3.55;;;;;;;;;;5031625;28;20021;-69
2023/04/09 13:27:08;;;;;;;6.07;2.63;;;;;;;;;;5037016;28;20644;-69
2023/04/09 13:29:33;;;;;;;7.15;4.50;;;;;;;;;;5030613;28;20372;-69
2023/04/09 13:32:01;;;;;;;6.25;3.33;;;;;;;;;;5030405;28;20014;-69
2023/04/09 13:34:26;;;;;;;7.57;3.22;;;;;;;;;;5031123;28;20131;-69
2023/04/09 13:36:51;;;;;;;8.90;3.55;;;;;;;;;;5030952;28;20414;-69
2023/04/09 13:39:17;;;;;;;8.77;4.47;;;;;;;;;;5030807;28;20704;-69
2023/04/09 13:41:42;;;;;;;6.40;3.25;;;;;;;;;;5032339;28;20411;-69
2023/04/09 13:44:07;;;;;;;5.80;2.83;;;;;;;;;;5030665;28;20067;-69
2023/04/09 13:46:32;;;;;;;8.57;4.50;;;;;;;;;;5031002;28;20699;-69
2023/04/09 13:48:58;;;;;;;8.83;4.07;;;;;;;;;;5032298;28;20294;-69
2023/04/09 13:51:24;;;;;;;6.00;3.33;;;;;;;;;;5031591;28;20346;-69
2023/04/09 13:53:51;;;;;;;7.38;4.10;;;;;;;;;;5030384;28;20352;-69
2023/04/09 13:56:16;;;;;;;8.30;4.13;;;;;;;;;;5028784;28;20029;-69
2023/04/09 13:58:42;;;;;;;6.78;3.95;;;;;;;;;;5028593;28;20075;-69
2023/04/09 14:01:07;;;;;;;4.53;2.28;;;;;;;;;;5031307;28;20534;-69
2023/04/09 14:03:33;;;;;;;6.72;4.10;;;;;;;;;;5028826;28;20033;-70
2023/04/09 14:05:58;;;;;;;4.33;2.03;;;;;;;;;;5029030;28;20398;-69
2023/04/09 14:08:23;;;;;;;8.77;4.63;;;;;;;;;;5030832;28;20307;-69
2023/04/09 14:10:48;;;;;;;7.53;4.27;;;;;;;;;;5029798;28;20372;-69
2023/04/09 14:13:13;;;;;;;7.47;4.60;;;;;;;;;;5029485;28;20691;-69
2023/04/09 14:15:39;;;;;;;8.90;4.63;;;;;;;;;;5029613;28;20264;-69
2023/04/09 14:18:04;;;;;;;6.53;3.88;;;;;;;;;;5031599;28;20427;-69
2023/04/09 14:20:29;;;;;;;6.75;3.65;;;;;;;;;;5029317;28;20014;-69